sensor_id;sensor_type;location;lat;lon;timestamp;P1;durP1;ratioP1;P2;durP2;ratioP2
19509;SDS011;9896;42.486;26.506;2023-04-15T00:00:14;54.07;;;5.43;;
19509;SDS011;9896;42.486;26.506;2023-04-15T00:02:41;37.67;;;5.80;;
19509;SDS011;9896;42.486;26.506;2023-04-15T00:05:06;11.63;;;5.17;;
19509;SDS011;9896;42.486;26.506;2023-04-15T00:07:32;12.17;;;4.10;;
19509;SDS011;9896;42.486;26.506;2023-04-15T00:09:58;10.97;;;3.83;;
19509;SDS011;9896;42.486;26.506;2023-04-15T00:12:24;11.77;;;3.60;;
19509;SDS011;9896;42.486;26.506;2023-04-15T00:14:51;6.53;;;3.60;;
19509;SDS011;9896;42.486;26.506;2023-04-15T00:17:17;12.23;;;4.57;;
19509;SDS011;9896;42.486;26.506;2023-04-15T00:19:42;11.17;;;3.70;;
19509;SDS011;9896;42.486;26.506;2023-04-15T00:22:11;11.50;;;4.70;;
19509;SDS011;9896;42.486;26.506;2023-04-15T00:24:37;11.20;;;4.30;;
19509;SDS011;9896;42.486;26.506;2023-04-15T00:27:02;19.13;;;4.37;;
19509;SDS011;9896;42.486;26.506;2023-04-15T00:29:28;7.90;;;3.00;;
19509;SDS011;9896;42.486;26.506;2023-04-15T00:31:54;8.73;;;3.47;;
19509;SDS011;9896;42.486;26.506;2023-04-15T00:34:24;13.40;;;3.73;;
19509;SDS011;9896;42.486;26.506;2023-04-15T00:36:49;11.47;;;3.87;;
19509;SDS011;9896;42.486;26.506;2023-04-15T00:39:16;10.03;;;3.70;;
19509;SDS011;9896;42.486;26.506;2023-04-15T00:41:42;13.10;;;3.97;;
19509;SDS011;9896;42.486;26.506;2023-04-15T00:44:09;11.67;;;4.13;;
19509;SDS011;9896;42.486;26.506;2023-04-15T00:46:35;10.73;;;4.20;;
19509;SDS011;9896;42.486;26.506;2023-04-15T00:49:05;17.07;;;6.03;;
19509;SDS011;9896;42.486;26.506;2023-04-15T00:51:31;12.27;;;5.83;;
19509;SDS011;9896;42.486;26.506;2023-04-15T00:54:01;16.20;;;5.70;;
19509;SDS011;9896;42.486;26.506;2023-04-15T00:56:28;16.27;;;5.77;;
19509;SDS011;9896;42.486;26.506;2023-04-15T00:58:54;17.47;;;4.20;;
19509;SDS011;9896;42.486;26.506;2023-04-15T01:01:20;13.27;;;4.97;;
19509;SDS011;9896;42.486;26.506;2023-04-15T01:03:47;17.87;;;6.60;;
19509;SDS011;9896;42.486;26.506;2023-04-15T01:06:14;12.00;;;5.20;;
19509;SDS011;9896;42.486;26.506;2023-04-15T01:08:40;9.43;;;5.23;;
19509;SDS011;9896;42.486;26.506;2023-04-15T01:11:06;11.53;;;4.23;;
19509;SDS011;9896;42.486;26.506;2023-04-15T01:13:32;8.73;;;4.10;;
19509;SDS011;9896;42.486;26.506;2023-04-15T01:15:59;10.80;;;3.80;;
19509;SDS011;9896;42.486;26.506;2023-04-15T01:18:26;13.17;;;4.50;;
19509;SDS011;9896;42.486;26.506;2023-04-15T01:20:53;12.50;;;4.10;;
19509;SDS011;9896;42.486;26.506;2023-04-15T01:23:19;10.50;;;4.00;;
19509;SDS011;9896;42.486;26.506;2023-04-15T01:25:46;10.50;;;3.23;;
19509;SDS011;9896;42.486;26.506;2023-04-15T01:28:13;8.63;;;3.63;;
19509;SDS011;9896;42.486;26.506;2023-04-15T01:30:38;10.10;;;4.30;;
19509;SDS011;9896;42.486;26.506;2023-04-15T01:33:04;9.63;;;4.40;;
19509;SDS011;9896;42.486;26.506;2023-04-15T01:35:30;7.60;;;3.87;;
19509;SDS011;9896;42.486;26.506;2023-04-15T01:37:57;12.40;;;3.63;;
19509;SDS011;9896;42.486;26.506;2023-04-15T01:40:30;9.67;;;3.93;;
19509;SDS011;9896;42.486;26.506;2023-04-15T01:42:55;11.10;;;3.67;;
19509;SDS011;9896;42.486;26.506;2023-04-15T01:45:21;8.40;;;3.60;;
19509;SDS011;9896;42.486;26.506;2023-04-15T01:47:47;13.23;;;4.33;;
19509;SDS011;9896;42.486;26.506;2023-04-15T01:50:13;8.23;;;3.80;;
19509;SDS011;9896;42.486;26.506;2023-04-15T01:52:39;8.70;;;4.10;;
19509;SDS011;9896;42.486;26.506;2023-04-15T01:55:05;13.73;;;4.80;;
19509;SDS011;9896;42.486;26.506;2023-04-15T01:57:32;10.53;;;4.00;;
19509;SDS011;9896;42.486;26.506;2023-04-15T01:59:58;14.17;;;4.60;;
19509;SDS011;9896;42.486;26.506;2023-04-15T02:02:24;11.90;;;5.20;;
19509;SDS011;9896;42.486;26.506;2023-04-15T02:04:49;20.43;;;6.50;;
19509;SDS011;9896;42.486;26.506;2023-04-15T02:07:15;17.83;;;5.20;;
19509;SDS011;9896;42.486;26.506;2023-04-15T02:09:40;14.03;;;5.03;;
19509;SDS011;9896;42.486;26.506;2023-04-15T02:12:07;13.33;;;4.93;;
19509;SDS011;9896;42.486;26.506;2023-04-15T02:14:33;12.83;;;5.40;;
19509;SDS011;9896;42.486;26.506;2023-04-15T02:16:58;15.47;;;5.47;;
19509;SDS011;9896;42.486;26.506;2023-04-15T02:19:31;8.20;;;4.03;;
19509;SDS011;9896;42.486;26.506;2023-04-15T02:21:57;9.07;;;4.37;;
19509;SDS011;9896;42.486;26.506;2023-04-15T02:24:22;14.23;;;5.20;;
19509;SDS011;9896;42.486;26.506;2023-04-15T02:26:48;11.27;;;5.20;;
19509;SDS011;9896;42.486;26.506;2023-04-15T02:29:13;12.87;;;5.50;;
19509;SDS011;9896;42.486;26.506;2023-04-15T02:31:39;11.73;;;4.77;;
19509;SDS011;9896;42.486;26.506;2023-04-15T02:34:06;11.00;;;5.20;;
19509;SDS011;9896;42.486;26.506;2023-04-15T02:36:32;12.53;;;5.83;;
19509;SDS011;9896;42.486;26.506;2023-04-15T02:38:58;9.43;;;5.60;;
19509;SDS011;9896;42.486;26.506;2023-04-15T02:41:24;12.37;;;7.00;;
19509;SDS011;9896;42.486;26.506;2023-04-15T02:43:52;16.00;;;7.17;;
19509;SDS011;9896;42.486;26.506;2023-04-15T02:46:18;17.67;;;7.00;;
19509;SDS011;9896;42.486;26.506;2023-04-15T02:48:43;14.90;;;7.10;;
19509;SDS011;9896;42.486;26.506;2023-04-15T02:51:19;15.13;;;6.93;;
19509;SDS011;9896;42.486;26.506;2023-04-15T02:53:45;18.30;;;8.20;;
19509;SDS011;9896;42.486;26.506;2023-04-15T02:56:12;14.90;;;7.30;;
19509;SDS011;9896;42.486;26.506;2023-04-15T02:58:39;16.97;;;8.00;;
19509;SDS011;9896;42.486;26.506;2023-04-15T03:01:05;18.23;;;8.40;;
19509;SDS011;9896;42.486;26.506;2023-04-15T03:03:31;17.70;;;8.30;;
19509;SDS011;9896;42.486;26.506;2023-04-15T03:05:57;19.53;;;9.30;;
19509;SDS011;9896;42.486;26.506;2023-04-15T03:08:22;22.60;;;9.93;;
19509;SDS011;9896;42.486;26.506;2023-04-15T03:10:48;23.00;;;9.20;;
19509;SDS011;9896;42.486;26.506;2023-04-15T03:13:13;20.57;;;9.60;;
19509;SDS011;9896;42.486;26.506;2023-04-15T03:15:38;26.93;;;10.27;;
19509;SDS011;9896;42.486;26.506;2023-04-15T03:18:04;27.03;;;10.40;;
19509;SDS011;9896;42.486;26.506;2023-04-15T03:20:29;20.67;;;9.87;;
19509;SDS011;9896;42.486;26.506;2023-04-15T03:22:55;21.33;;;10.23;;
19509;SDS011;9896;42.486;26.506;2023-04-15T03:25:21;25.47;;;10.47;;
19509;SDS011;9896;42.486;26.506;2023-04-15T03:27:46;23.53;;;11.50;;
19509;SDS011;9896;42.486;26.506;2023-04-15T03:30:12;25.50;;;11.50;;
19509;SDS011;9896;42.486;26.506;2023-04-15T03:32:37;33.97;;;10.97;;
19509;SDS011;9896;42.486;26.506;2023-04-15T03:35:04;24.13;;;10.70;;
19509;SDS011;9896;42.486;26.506;2023-04-15T03:37:29;24.40;;;10.10;;
19509;SDS011;9896;42.486;26.506;2023-04-15T03:39:55;22.67;;;10.07;;
19509;SDS011;9896;42.486;26.506;2023-04-15T03:42:20;19.43;;;9.23;;
19509;SDS011;9896;42.486;26.506;2023-04-15T03:44:46;18.03;;;9.03;;
19509;SDS011;9896;42.486;26.506;2023-04-15T03:47:11;24.13;;;9.30;;
19509;SDS011;9896;42.486;26.506;2023-04-15T03:49:37;22.37;;;9.20;;
19509;SDS011;9896;42.486;26.506;2023-04-15T03:52:02;17.60;;;8.90;;
19509;SDS011;9896;42.486;26.506;2023-04-15T03:54:28;19.77;;;8.80;;
19509;SDS011;9896;42.486;26.506;2023-04-15T03:56:53;26.00;;;8.83;;
19509;SDS011;9896;42.486;26.506;2023-04-15T03:59:18;27.43;;;10.63;;
19509;SDS011;9896;42.486;26.506;2023-04-15T04:01:44;30.50;;;10.97;;
19509;SDS011;9896;42.486;26.506;2023-04-15T04:04:09;22.87;;;8.73;;
19509;SDS011;9896;42.486;26.506;2023-04-15T04:06:35;18.37;;;8.93;;
19509;SDS011;9896;42.486;26.506;2023-04-15T04:09:01;27.57;;;9.77;;
19509;SDS011;9896;42.486;26.506;2023-04-15T04:11:26;22.80;;;9.07;;
19509;SDS011;9896;42.486;26.506;2023-04-15T04:13:52;16.43;;;8.43;;
19509;SDS011;9896;42.486;26.506;2023-04-15T04:16:18;21.60;;;8.27;;
19509;SDS011;9896;42.486;26.506;2023-04-15T04:18:43;23.87;;;8.70;;
19509;SDS011;9896;42.486;26.506;2023-04-15T04:21:09;22.87;;;8.73;;
19509;SDS011;9896;42.486;26.506;2023-04-15T04:23:35;21.90;;;9.33;;
19509;SDS011;9896;42.486;26.506;2023-04-15T04:26:00;24.03;;;8.70;;
19509;SDS011;9896;42.486;26.506;2023-04-15T04:28:26;16.90;;;8.53;;
19509;SDS011;9896;42.486;26.506;2023-04-15T04:30:52;18.90;;;8.53;;
19509;SDS011;9896;42.486;26.506;2023-04-15T04:33:17;14.90;;;7.90;;
19509;SDS011;9896;42.486;26.506;2023-04-15T04:35:43;19.67;;;8.43;;
19509;SDS011;9896;42.486;26.506;2023-04-15T04:38:08;17.67;;;8.30;;
19509;SDS011;9896;42.486;26.506;2023-04-15T04:40:34;22.67;;;7.97;;
19509;SDS011;9896;42.486;26.506;2023-04-15T04:43:00;22.93;;;8.00;;
19509;SDS011;9896;42.486;26.506;2023-04-15T04:45:25;14.10;;;6.23;;
19509;SDS011;9896;42.486;26.506;2023-04-15T04:47:51;12.00;;;6.03;;
19509;SDS011;9896;42.486;26.506;2023-04-15T04:50:16;9.77;;;5.13;;
19509;SDS011;9896;42.486;26.506;2023-04-15T04:52:42;10.57;;;5.23;;
19509;SDS011;9896;42.486;26.506;2023-04-15T04:55:07;12.67;;;5.53;;
19509;SDS011;9896;42.486;26.506;2023-04-15T04:57:33;12.50;;;5.30;;
19509;SDS011;9896;42.486;26.506;2023-04-15T05:00:03;24.30;;;10.80;;
19509;SDS011;9896;42.486;26.506;2023-04-15T05:02:30;15.73;;;9.27;;
19509;SDS011;9896;42.486;26.506;2023-04-15T05:04:56;8.93;;;4.60;;
19509;SDS011;9896;42.486;26.506;2023-04-15T05:07:22;9.43;;;3.97;;
19509;SDS011;9896;42.486;26.506;2023-04-15T05:09:47;8.70;;;4.13;;
19509;SDS011;9896;42.486;26.506;2023-04-15T05:12:13;7.67;;;4.30;;
19509;SDS011;9896;42.486;26.506;2023-04-15T05:14:39;13.63;;;5.00;;
19509;SDS011;9896;42.486;26.506;2023-04-15T05:17:06;5.40;;;3.40;;
19509;SDS011;9896;42.486;26.506;2023-04-15T05:19:31;8.50;;;4.50;;
19509;SDS011;9896;42.486;26.506;2023-04-15T05:21:57;5.00;;;3.17;;
19509;SDS011;9896;42.486;26.506;2023-04-15T05:24:22;6.63;;;4.43;;
19509;SDS011;9896;42.486;26.506;2023-04-15T05:26:48;8.10;;;4.10;;
19509;SDS011;9896;42.486;26.506;2023-04-15T05:29:13;5.83;;;3.33;;
19509;SDS011;9896;42.486;26.506;2023-04-15T05:31:39;7.97;;;3.63;;
19509;SDS011;9896;42.486;26.506;2023-04-15T05:34:04;6.20;;;3.37;;
19509;SDS011;9896;42.486;26.506;2023-04-15T05:36:31;33.40;;;15.53;;
19509;SDS011;9896;42.486;26.506;2023-04-15T05:38:57;53.60;;;27.20;;
19509;SDS011;9896;42.486;26.506;2023-04-15T05:41:22;6.30;;;4.07;;
19509;SDS011;9896;42.486;26.506;2023-04-15T05:43:48;6.53;;;3.53;;
19509;SDS011;9896;42.486;26.506;2023-04-15T05:46:13;4.53;;;2.90;;
19509;SDS011;9896;42.486;26.506;2023-04-15T05:48:39;7.33;;;3.57;;
19509;SDS011;9896;42.486;26.506;2023-04-15T05:51:04;8.13;;;5.13;;
19509;SDS011;9896;42.486;26.506;2023-04-15T05:53:30;10.47;;;5.17;;
19509;SDS011;9896;42.486;26.506;2023-04-15T05:55:56;11.73;;;6.20;;
19509;SDS011;9896;42.486;26.506;2023-04-15T05:58:21;9.30;;;5.47;;
19509;SDS011;9896;42.486;26.506;2023-04-15T06:00:47;11.60;;;5.43;;
19509;SDS011;9896;42.486;26.506;2023-04-15T06:03:12;11.43;;;5.23;;
19509;SDS011;9896;42.486;26.506;2023-04-15T06:05:38;9.73;;;5.40;;
19509;SDS011;9896;42.486;26.506;2023-04-15T06:08:04;29.47;;;15.30;;
19509;SDS011;9896;42.486;26.506;2023-04-15T06:10:30;12.23;;;4.80;;
19509;SDS011;9896;42.486;26.506;2023-04-15T06:13:00;6.70;;;4.17;;
19509;SDS011;9896;42.486;26.506;2023-04-15T06:15:27;11.63;;;5.13;;
19509;SDS011;9896;42.486;26.506;2023-04-15T06:17:52;6.77;;;4.07;;
19509;SDS011;9896;42.486;26.506;2023-04-15T06:20:17;8.10;;;3.67;;
19509;SDS011;9896;42.486;26.506;2023-04-15T06:22:43;6.53;;;3.40;;
19509;SDS011;9896;42.486;26.506;2023-04-15T06:25:09;11.50;;;4.00;;
19509;SDS011;9896;42.486;26.506;2023-04-15T06:27:35;6.17;;;3.03;;
19509;SDS011;9896;42.486;26.506;2023-04-15T06:30:00;8.73;;;3.37;;
19509;SDS011;9896;42.486;26.506;2023-04-15T06:32:26;5.10;;;3.33;;
19509;SDS011;9896;42.486;26.506;2023-04-15T06:34:51;10.80;;;4.00;;
19509;SDS011;9896;42.486;26.506;2023-04-15T06:37:17;7.63;;;4.00;;
19509;SDS011;9896;42.486;26.506;2023-04-15T06:39:42;6.60;;;3.33;;
19509;SDS011;9896;42.486;26.506;2023-04-15T06:42:08;7.53;;;3.60;;
19509;SDS011;9896;42.486;26.506;2023-04-15T06:44:35;7.73;;;3.60;;
19509;SDS011;9896;42.486;26.506;2023-04-15T06:47:01;8.10;;;3.17;;
19509;SDS011;9896;42.486;26.506;2023-04-15T06:49:27;7.37;;;2.80;;
19509;SDS011;9896;42.486;26.506;2023-04-15T06:51:52;10.53;;;3.40;;
19509;SDS011;9896;42.486;26.506;2023-04-15T06:54:18;7.53;;;3.63;;
19509;SDS011;9896;42.486;26.506;2023-04-15T06:56:43;10.20;;;3.63;;
19509;SDS011;9896;42.486;26.506;2023-04-15T06:59:09;6.23;;;4.33;;
19509;SDS011;9896;42.486;26.506;2023-04-15T07:01:34;4.50;;;3.10;;
19509;SDS011;9896;42.486;26.506;2023-04-15T07:04:00;2.97;;;2.13;;
19509;SDS011;9896;42.486;26.506;2023-04-15T07:06:25;8.57;;;2.73;;
19509;SDS011;9896;42.486;26.506;2023-04-15T07:08:51;6.30;;;2.50;;
19509;SDS011;9896;42.486;26.506;2023-04-15T07:11:18;7.13;;;2.60;;
19509;SDS011;9896;42.486;26.506;2023-04-15T07:13:44;8.20;;;3.00;;
19509;SDS011;9896;42.486;26.506;2023-04-15T07:16:10;6.37;;;3.33;;
19509;SDS011;9896;42.486;26.506;2023-04-15T07:18:36;5.80;;;2.80;;
19509;SDS011;9896;42.486;26.506;2023-04-15T07:21:01;3.63;;;2.60;;
19509;SDS011;9896;42.486;26.506;2023-04-15T07:23:27;6.93;;;2.70;;
19509;SDS011;9896;42.486;26.506;2023-04-15T07:25:52;5.63;;;2.90;;
19509;SDS011;9896;42.486;26.506;2023-04-15T07:28:18;5.33;;;2.53;;
19509;SDS011;9896;42.486;26.506;2023-04-15T07:30:43;8.00;;;2.67;;
19509;SDS011;9896;42.486;26.506;2023-04-15T07:33:09;5.20;;;2.80;;
19509;SDS011;9896;42.486;26.506;2023-04-15T07:35:34;4.37;;;3.37;;
19509;SDS011;9896;42.486;26.506;2023-04-15T07:38:00;6.77;;;3.07;;
19509;SDS011;9896;42.486;26.506;2023-04-15T07:40:26;4.80;;;3.00;;
19509;SDS011;9896;42.486;26.506;2023-04-15T07:42:52;9.57;;;4.90;;
19509;SDS011;9896;42.486;26.506;2023-04-15T07:45:17;7.07;;;3.10;;
19509;SDS011;9896;42.486;26.506;2023-04-15T07:47:43;6.43;;;2.70;;
19509;SDS011;9896;42.486;26.506;2023-04-15T07:50:08;4.67;;;2.83;;
19509;SDS011;9896;42.486;26.506;2023-04-15T07:52:35;6.17;;;3.17;;
19509;SDS011;9896;42.486;26.506;2023-04-15T07:55:06;4.43;;;2.73;;
19509;SDS011;9896;42.486;26.506;2023-04-15T07:57:35;2.93;;;2.30;;
19509;SDS011;9896;42.486;26.506;2023-04-15T08:00:02;4.63;;;2.40;;
19509;SDS011;9896;42.486;26.506;2023-04-15T08:02:31;2.93;;;2.63;;
19509;SDS011;9896;42.486;26.506;2023-04-15T08:04:57;7.40;;;2.50;;
19509;SDS011;9896;42.486;26.506;2023-04-15T08:07:23;6.57;;;2.40;;
19509;SDS011;9896;42.486;26.506;2023-04-15T08:09:49;5.10;;;2.30;;
19509;SDS011;9896;42.486;26.506;2023-04-15T08:12:15;3.63;;;2.10;;
19509;SDS011;9896;42.486;26.506;2023-04-15T08:14:41;4.47;;;2.20;;
19509;SDS011;9896;42.486;26.506;2023-04-15T08:17:06;6.73;;;2.80;;
19509;SDS011;9896;42.486;26.506;2023-04-15T08:19:32;6.47;;;2.07;;
19509;SDS011;9896;42.486;26.506;2023-04-15T08:21:57;6.27;;;2.70;;
19509;SDS011;9896;42.486;26.506;2023-04-15T08:24:23;5.30;;;2.37;;
19509;SDS011;9896;42.486;26.506;2023-04-15T08:26:50;6.33;;;2.77;;
19509;SDS011;9896;42.486;26.506;2023-04-15T08:29:16;4.47;;;2.40;;
19509;SDS011;9896;42.486;26.506;2023-04-15T08:31:42;4.43;;;2.30;;
19509;SDS011;9896;42.486;26.506;2023-04-15T08:34:07;7.07;;;2.80;;
19509;SDS011;9896;42.486;26.506;2023-04-15T08:36:33;5.53;;;2.67;;
19509;SDS011;9896;42.486;26.506;2023-04-15T08:38:59;10.27;;;2.77;;
19509;SDS011;9896;42.486;26.506;2023-04-15T08:41:30;6.03;;;2.30;;
19509;SDS011;9896;42.486;26.506;2023-04-15T08:44:04;5.73;;;2.67;;
19509;SDS011;9896;42.486;26.506;2023-04-15T08:46:31;7.37;;;2.67;;
19509;SDS011;9896;42.486;26.506;2023-04-15T08:49:00;5.43;;;2.60;;
19509;SDS011;9896;42.486;26.506;2023-04-15T08:51:28;8.63;;;2.77;;
19509;SDS011;9896;42.486;26.506;2023-04-15T08:53:54;4.03;;;2.33;;
19509;SDS011;9896;42.486;26.506;2023-04-15T08:56:23;3.70;;;2.30;;
19509;SDS011;9896;42.486;26.506;2023-04-15T08:58:49;7.50;;;3.83;;
19509;SDS011;9896;42.486;26.506;2023-04-15T09:01:15;4.30;;;2.17;;
19509;SDS011;9896;42.486;26.506;2023-04-15T09:03:41;4.47;;;2.70;;
19509;SDS011;9896;42.486;26.506;2023-04-15T09:06:06;5.33;;;2.87;;
19509;SDS011;9896;42.486;26.506;2023-04-15T09:08:32;5.30;;;2.47;;
19509;SDS011;9896;42.486;26.506;2023-04-15T09:11:01;3.40;;;2.30;;
19509;SDS011;9896;42.486;26.506;2023-04-15T09:13:28;5.73;;;2.50;;
19509;SDS011;9896;42.486;26.506;2023-04-15T09:15:54;4.27;;;2.47;;
19509;SDS011;9896;42.486;26.506;2023-04-15T09:18:29;4.30;;;2.27;;
19509;SDS011;9896;42.486;26.506;2023-04-15T09:21:05;3.97;;;2.53;;
19509;SDS011;9896;42.486;26.506;2023-04-15T09:23:35;3.53;;;2.20;;
19509;SDS011;9896;42.486;26.506;2023-04-15T09:26:02;4.30;;;2.47;;
19509;SDS011;9896;42.486;26.506;2023-04-15T09:28:28;4.60;;;2.50;;
19509;SDS011;9896;42.486;26.506;2023-04-15T09:30:58;3.23;;;2.50;;
19509;SDS011;9896;42.486;26.506;2023-04-15T09:33:25;5.00;;;2.97;;
19509;SDS011;9896;42.486;26.506;2023-04-15T09:35:56;3.40;;;2.70;;
19509;SDS011;9896;42.486;26.506;2023-04-15T09:38:23;2.73;;;2.30;;
19509;SDS011;9896;42.486;26.506;2023-04-15T09:40:49;4.67;;;2.87;;
19509;SDS011;9896;42.486;26.506;2023-04-15T09:43:14;5.87;;;2.80;;
19509;SDS011;9896;42.486;26.506;2023-04-15T09:45:48;4.93;;;2.93;;
19509;SDS011;9896;42.486;26.506;2023-04-15T09:48:16;7.30;;;2.90;;
19509;SDS011;9896;42.486;26.506;2023-04-15T09:50:43;5.70;;;2.90;;
19509;SDS011;9896;42.486;26.506;2023-04-15T09:53:14;5.27;;;2.80;;
19509;SDS011;9896;42.486;26.506;2023-04-15T09:55:48;12.30;;;5.87;;
19509;SDS011;9896;42.486;26.506;2023-04-15T09:58:22;3.97;;;2.60;;
19509;SDS011;9896;42.486;26.506;2023-04-15T10:00:52;3.67;;;2.50;;
19509;SDS011;9896;42.486;26.506;2023-04-15T10:03:23;5.10;;;3.10;;
19509;SDS011;9896;42.486;26.506;2023-04-15T10:05:52;7.20;;;2.53;;
19509;SDS011;9896;42.486;26.506;2023-04-15T10:08:21;4.83;;;3.00;;
19509;SDS011;9896;42.486;26.506;2023-04-15T10:10:49;3.40;;;2.53;;
19509;SDS011;9896;42.486;26.506;2023-04-15T10:13:17;4.83;;;2.53;;
19509;SDS011;9896;42.486;26.506;2023-04-15T10:15:44;3.63;;;2.90;;
19509;SDS011;9896;42.486;26.506;2023-04-15T10:18:24;13.87;;;8.50;;
19509;SDS011;9896;42.486;26.506;2023-04-15T10:20:51;5.67;;;3.13;;
19509;SDS011;9896;42.486;26.506;2023-04-15T10:23:17;4.13;;;3.23;;
19509;SDS011;9896;42.486;26.506;2023-04-15T10:25:45;7.13;;;3.10;;
19509;SDS011;9896;42.486;26.506;2023-04-15T10:28:11;3.90;;;2.57;;
19509;SDS011;9896;42.486;26.506;2023-04-15T10:30:37;6.07;;;3.17;;
19509;SDS011;9896;42.486;26.506;2023-04-15T10:33:03;71.83;;;4.80;;
19509;SDS011;9896;42.486;26.506;2023-04-15T10:35:30;4.63;;;3.20;;
19509;SDS011;9896;42.486;26.506;2023-04-15T10:37:56;6.83;;;4.10;;
19509;SDS011;9896;42.486;26.506;2023-04-15T10:42:59;7.00;;;3.33;;
19509;SDS011;9896;42.486;26.506;2023-04-15T10:45:35;5.47;;;3.00;;
19509;SDS011;9896;42.486;26.506;2023-04-15T10:48:02;6.47;;;2.90;;
19509;SDS011;9896;42.486;26.506;2023-04-15T10:50:31;7.07;;;3.00;;
19509;SDS011;9896;42.486;26.506;2023-04-15T10:52:57;7.83;;;3.97;;
19509;SDS011;9896;42.486;26.506;2023-04-15T10:55:23;6.63;;;2.77;;
19509;SDS011;9896;42.486;26.506;2023-04-15T10:57:51;3.93;;;2.93;;
19509;SDS011;9896;42.486;26.506;2023-04-15T11:00:18;7.00;;;2.40;;
19509;SDS011;9896;42.486;26.506;2023-04-15T11:02:53;6.93;;;2.40;;
19509;SDS011;9896;42.486;26.506;2023-04-15T11:05:21;5.30;;;2.60;;
19509;SDS011;9896;42.486;26.506;2023-04-15T11:08:10;3.57;;;2.27;;
19509;SDS011;9896;42.486;26.506;2023-04-15T11:13:03;3.87;;;1.87;;
19509;SDS011;9896;42.486;26.506;2023-04-15T11:15:34;6.77;;;2.70;;
19509;SDS011;9896;42.486;26.506;2023-04-15T11:20:43;4.90;;;2.30;;
19509;SDS011;9896;42.486;26.506;2023-04-15T11:23:16;7.00;;;1.93;;
19509;SDS011;9896;42.486;26.506;2023-04-15T11:25:43;5.10;;;1.87;;
19509;SDS011;9896;42.486;26.506;2023-04-15T11:28:10;10.37;;;2.83;;
19509;SDS011;9896;42.486;26.506;2023-04-15T11:30:37;4.20;;;2.53;;
19509;SDS011;9896;42.486;26.506;2023-04-15T11:33:04;189.30;;;14.37;;
19509;SDS011;9896;42.486;26.506;2023-04-15T11:35:31;3.50;;;2.33;;
19509;SDS011;9896;42.486;26.506;2023-04-15T11:37:56;3.50;;;1.80;;
19509;SDS011;9896;42.486;26.506;2023-04-15T11:40:26;3.97;;;1.83;;
19509;SDS011;9896;42.486;26.506;2023-04-15T11:45:47;4.63;;;1.80;;
19509;SDS011;9896;42.486;26.506;2023-04-15T11:48:53;5.20;;;2.03;;
19509;SDS011;9896;42.486;26.506;2023-04-15T11:51:12;4.60;;;1.70;;
19509;SDS011;9896;42.486;26.506;2023-04-15T11:53:39;5.53;;;2.07;;
19509;SDS011;9896;42.486;26.506;2023-04-15T11:56:31;3.87;;;2.10;;
19509;SDS011;9896;42.486;26.506;2023-04-15T11:58:57;5.73;;;2.33;;
19509;SDS011;9896;42.486;26.506;2023-04-15T12:01:36;4.73;;;2.03;;
19509;SDS011;9896;42.486;26.506;2023-04-15T12:04:12;5.47;;;2.40;;
19509;SDS011;9896;42.486;26.506;2023-04-15T12:06:44;3.60;;;1.73;;
19509;SDS011;9896;42.486;26.506;2023-04-15T12:09:13;3.77;;;1.93;;
19509;SDS011;9896;42.486;26.506;2023-04-15T12:11:50;2.63;;;1.83;;
19509;SDS011;9896;42.486;26.506;2023-04-15T12:14:28;5.63;;;4.17;;
19509;SDS011;9896;42.486;26.506;2023-04-15T12:17:02;6.00;;;2.10;;
19509;SDS011;9896;42.486;26.506;2023-04-15T12:19:30;3.30;;;2.07;;
19509;SDS011;9896;42.486;26.506;2023-04-15T12:22:03;38.57;;;3.83;;
19509;SDS011;9896;42.486;26.506;2023-04-15T12:24:31;5.47;;;1.77;;
19509;SDS011;9896;42.486;26.506;2023-04-15T12:27:00;4.63;;;1.90;;
19509;SDS011;9896;42.486;26.506;2023-04-15T12:29:28;6.00;;;2.03;;
19509;SDS011;9896;42.486;26.506;2023-04-15T12:32:03;5.20;;;2.53;;
19509;SDS011;9896;42.486;26.506;2023-04-15T12:34:33;42.23;;;3.20;;
19509;SDS011;9896;42.486;26.506;2023-04-15T12:37:01;216.50;;;17.03;;
19509;SDS011;9896;42.486;26.506;2023-04-15T12:39:28;3.13;;;2.00;;
19509;SDS011;9896;42.486;26.506;2023-04-15T12:41:56;8.77;;;2.20;;
19509;SDS011;9896;42.486;26.506;2023-04-15T12:44:22;54.40;;;4.93;;
19509;SDS011;9896;42.486;26.506;2023-04-15T12:46:48;4.47;;;1.97;;
19509;SDS011;9896;42.486;26.506;2023-04-15T12:49:14;3.00;;;1.90;;
19509;SDS011;9896;42.486;26.506;2023-04-15T12:51:40;6.47;;;2.47;;
19509;SDS011;9896;42.486;26.506;2023-04-15T12:54:06;3.83;;;1.80;;
19509;SDS011;9896;42.486;26.506;2023-04-15T12:56:32;6.23;;;2.40;;
19509;SDS011;9896;42.486;26.506;2023-04-15T12:58:57;7.80;;;2.20;;
19509;SDS011;9896;42.486;26.506;2023-04-15T13:01:23;6.60;;;1.70;;
19509;SDS011;9896;42.486;26.506;2023-04-15T13:03:49;5.70;;;2.20;;
19509;SDS011;9896;42.486;26.506;2023-04-15T13:06:15;4.43;;;1.97;;
19509;SDS011;9896;42.486;26.506;2023-04-15T13:08:41;7.00;;;1.87;;
19509;SDS011;9896;42.486;26.506;2023-04-15T13:11:07;3.30;;;1.67;;
19509;SDS011;9896;42.486;26.506;2023-04-15T13:13:32;6.23;;;2.10;;
19509;SDS011;9896;42.486;26.506;2023-04-15T13:15:58;6.90;;;2.00;;
19509;SDS011;9896;42.486;26.506;2023-04-15T13:18:24;8.60;;;1.87;;
19509;SDS011;9896;42.486;26.506;2023-04-15T13:20:50;5.10;;;1.80;;
19509;SDS011;9896;42.486;26.506;2023-04-15T13:23:15;4.03;;;1.93;;
19509;SDS011;9896;42.486;26.506;2023-04-15T13:25:41;3.30;;;1.77;;
19509;SDS011;9896;42.486;26.506;2023-04-15T13:28:07;6.27;;;2.10;;
19509;SDS011;9896;42.486;26.506;2023-04-15T13:30:32;3.17;;;1.77;;
19509;SDS011;9896;42.486;26.506;2023-04-15T13:32:58;5.30;;;2.43;;
19509;SDS011;9896;42.486;26.506;2023-04-15T13:35:23;7.63;;;2.20;;
19509;SDS011;9896;42.486;26.506;2023-04-15T13:37:49;6.07;;;2.10;;
19509;SDS011;9896;42.486;26.506;2023-04-15T13:40:15;27.27;;;3.37;;
19509;SDS011;9896;42.486;26.506;2023-04-15T13:42:40;6.37;;;2.33;;
19509;SDS011;9896;42.486;26.506;2023-04-15T13:45:07;7.07;;;2.20;;
19509;SDS011;9896;42.486;26.506;2023-04-15T13:47:32;13.27;;;3.70;;
19509;SDS011;9896;42.486;26.506;2023-04-15T13:49:58;14.00;;;8.50;;
19509;SDS011;9896;42.486;26.506;2023-04-15T13:52:23;5.60;;;2.03;;
19509;SDS011;9896;42.486;26.506;2023-04-15T13:54:49;8.90;;;3.40;;
19509;SDS011;9896;42.486;26.506;2023-04-15T13:57:14;5.60;;;2.17;;
19509;SDS011;9896;42.486;26.506;2023-04-15T13:59:40;7.07;;;2.90;;
19509;SDS011;9896;42.486;26.506;2023-04-15T14:02:05;7.80;;;2.70;;
19509;SDS011;9896;42.486;26.506;2023-04-15T14:04:31;10.10;;;2.77;;
19509;SDS011;9896;42.486;26.506;2023-04-15T14:06:57;6.63;;;2.70;;
19509;SDS011;9896;42.486;26.506;2023-04-15T14:09:22;14.57;;;3.23;;
19509;SDS011;9896;42.486;26.506;2023-04-15T14:11:51;7.30;;;2.47;;
19509;SDS011;9896;42.486;26.506;2023-04-15T14:14:16;7.70;;;2.87;;
19509;SDS011;9896;42.486;26.506;2023-04-15T14:16:42;7.47;;;2.60;;
19509;SDS011;9896;42.486;26.506;2023-04-15T14:19:07;7.57;;;2.27;;
19509;SDS011;9896;42.486;26.506;2023-04-15T14:21:33;8.40;;;2.70;;
19509;SDS011;9896;42.486;26.506;2023-04-15T14:23:58;9.87;;;2.80;;
19509;SDS011;9896;42.486;26.506;2023-04-15T14:26:24;9.45;;;3.05;;
19509;SDS011;9896;42.486;26.506;2023-04-15T14:28:50;145.73;;;9.57;;
19509;SDS011;9896;42.486;26.506;2023-04-15T14:31:15;12.40;;;3.53;;
19509;SDS011;9896;42.486;26.506;2023-04-15T14:33:41;12.80;;;3.37;;
19509;SDS011;9896;42.486;26.506;2023-04-15T14:36:07;31.57;;;14.57;;
19509;SDS011;9896;42.486;26.506;2023-04-15T14:38:34;18.40;;;6.13;;
19509;SDS011;9896;42.486;26.506;2023-04-15T14:41:04;11.70;;;3.10;;
19509;SDS011;9896;42.486;26.506;2023-04-15T14:43:34;7.97;;;3.63;;
19509;SDS011;9896;42.486;26.506;2023-04-15T14:46:00;12.67;;;4.47;;
19509;SDS011;9896;42.486;26.506;2023-04-15T14:48:26;9.00;;;3.60;;